Terminal Aerodrome Forecast
Issued by NWS

Home | Current Version | Previous Version | Text Only | Print | Product List | Glossary On
Versions: 1 2 3 4 5 6 7 8 9 10 11 12 13 14
000
FTUS43 KGRB 050520
TAFMTW
TAF
KMTW 050520Z 0506/0606 02004KT P6SM SCT080
      TEMPO 0507/0511 2SM BR SCT025
     FM051500 11007KT P6SM BKN035
     FM060200 11004KT P6SM SCT035=

USA.gov is the U.S. government's official web portal to all federal, state and local government web resources and services.